sensor_id;sensor_type;location;lat;lon;timestamp;P1;durP1;ratioP1;P2;durP2;ratioP2
29030;SDS011;16122;50.236;11.734;2023-02-17T00:00:10;4.47;;;4.07;;
29030;SDS011;16122;50.236;11.734;2023-02-17T00:02:37;4.73;;;4.33;;
29030;SDS011;16122;50.236;11.734;2023-02-17T00:05:04;4.77;;;4.30;;
29030;SDS011;16122;50.236;11.734;2023-02-17T00:07:33;5.20;;;4.70;;
29030;SDS011;16122;50.236;11.734;2023-02-17T00:10:00;5.10;;;4.60;;
29030;SDS011;16122;50.236;11.734;2023-02-17T00:12:26;4.10;;;3.80;;
29030;SDS011;16122;50.236;11.734;2023-02-17T00:14:52;4.77;;;4.37;;
29030;SDS011;16122;50.236;11.734;2023-02-17T00:17:18;4.73;;;4.30;;
29030;SDS011;16122;50.236;11.734;2023-02-17T00:19:43;4.83;;;4.30;;
29030;SDS011;16122;50.236;11.734;2023-02-17T00:22:09;4.47;;;4.07;;
29030;SDS011;16122;50.236;11.734;2023-02-17T00:24:39;4.80;;;4.40;;
29030;SDS011;16122;50.236;11.734;2023-02-17T00:27:05;4.83;;;4.37;;
29030;SDS011;16122;50.236;11.734;2023-02-17T00:29:32;5.57;;;3.97;;
29030;SDS011;16122;50.236;11.734;2023-02-17T00:31:58;3.50;;;3.20;;
29030;SDS011;16122;50.236;11.734;2023-02-17T00:34:24;4.10;;;3.70;;
29030;SDS011;16122;50.236;11.734;2023-02-17T00:36:52;4.27;;;3.97;;
29030;SDS011;16122;50.236;11.734;2023-02-17T00:39:18;5.20;;;4.73;;
29030;SDS011;16122;50.236;11.734;2023-02-17T00:41:47;4.47;;;4.07;;
29030;SDS011;16122;50.236;11.734;2023-02-17T00:44:17;4.07;;;3.70;;
29030;SDS011;16122;50.236;11.734;2023-02-17T00:46:49;4.67;;;4.20;;
29030;SDS011;16122;50.236;11.734;2023-02-17T00:49:25;4.40;;;4.00;;
29030;SDS011;16122;50.236;11.734;2023-02-17T00:51:51;4.67;;;4.17;;
29030;SDS011;16122;50.236;11.734;2023-02-17T00:54:17;4.40;;;4.00;;
29030;SDS011;16122;50.236;11.734;2023-02-17T00:56:44;4.60;;;3.97;;
29030;SDS011;16122;50.236;11.734;2023-02-17T00:59:10;4.93;;;4.33;;
29030;SDS011;16122;50.236;11.734;2023-02-17T01:01:36;4.63;;;4.23;;
29030;SDS011;16122;50.236;11.734;2023-02-17T01:04:03;5.73;;;4.93;;
29030;SDS011;16122;50.236;11.734;2023-02-17T01:06:31;4.90;;;4.40;;
29030;SDS011;16122;50.236;11.734;2023-02-17T01:09:00;4.23;;;3.80;;
29030;SDS011;16122;50.236;11.734;2023-02-17T01:11:27;5.50;;;4.23;;
29030;SDS011;16122;50.236;11.734;2023-02-17T01:13:56;4.43;;;3.87;;
29030;SDS011;16122;50.236;11.734;2023-02-17T01:16:29;4.60;;;3.97;;
29030;SDS011;16122;50.236;11.734;2023-02-17T01:18:59;5.47;;;4.30;;
29030;SDS011;16122;50.236;11.734;2023-02-17T01:21:28;4.27;;;3.90;;
29030;SDS011;16122;50.236;11.734;2023-02-17T01:23:57;4.60;;;4.20;;
29030;SDS011;16122;50.236;11.734;2023-02-17T01:26:24;6.60;;;4.30;;
29030;SDS011;16122;50.236;11.734;2023-02-17T01:28:52;4.93;;;4.43;;
29030;SDS011;16122;50.236;11.734;2023-02-17T01:31:20;4.57;;;4.17;;
29030;SDS011;16122;50.236;11.734;2023-02-17T01:33:46;4.70;;;4.30;;
29030;SDS011;16122;50.236;11.734;2023-02-17T01:36:13;5.20;;;4.70;;
29030;SDS011;16122;50.236;11.734;2023-02-17T01:38:41;5.90;;;4.60;;
29030;SDS011;16122;50.236;11.734;2023-02-17T01:41:07;4.27;;;3.87;;
29030;SDS011;16122;50.236;11.734;2023-02-17T01:43:34;4.30;;;3.90;;
29030;SDS011;16122;50.236;11.734;2023-02-17T01:46:02;4.60;;;4.10;;
29030;SDS011;16122;50.236;11.734;2023-02-17T01:51:07;4.47;;;4.07;;
29030;SDS011;16122;50.236;11.734;2023-02-17T01:53:50;4.37;;;4.07;;
29030;SDS011;16122;50.236;11.734;2023-02-17T01:56:23;5.03;;;4.57;;
29030;SDS011;16122;50.236;11.734;2023-02-17T01:58:52;4.77;;;4.10;;
29030;SDS011;16122;50.236;11.734;2023-02-17T02:01:20;4.80;;;4.30;;
29030;SDS011;16122;50.236;11.734;2023-02-17T02:03:47;4.27;;;3.87;;
29030;SDS011;16122;50.236;11.734;2023-02-17T02:06:17;7.80;;;3.90;;
29030;SDS011;16122;50.236;11.734;2023-02-17T02:11:28;4.20;;;3.90;;
29030;SDS011;16122;50.236;11.734;2023-02-17T02:13:54;3.83;;;3.53;;
29030;SDS011;16122;50.236;11.734;2023-02-17T02:17:05;5.77;;;3.87;;
29030;SDS011;16122;50.236;11.734;2023-02-17T02:24:58;4.47;;;3.90;;
29030;SDS011;16122;50.236;11.734;2023-02-17T02:30:20;4.40;;;4.00;;
29030;SDS011;16122;50.236;11.734;2023-02-17T02:42:00;3.80;;;3.50;;
29030;SDS011;16122;50.236;11.734;2023-02-17T02:44:29;3.93;;;3.50;;
29030;SDS011;16122;50.236;11.734;2023-02-17T02:46:56;4.00;;;3.70;;
29030;SDS011;16122;50.236;11.734;2023-02-17T02:49:24;3.50;;;3.20;;
29030;SDS011;16122;50.236;11.734;2023-02-17T02:54:50;3.90;;;3.60;;
29030;SDS011;16122;50.236;11.734;2023-02-17T03:03:03;4.33;;;3.70;;
29030;SDS011;16122;50.236;11.734;2023-02-17T03:08:35;3.67;;;3.37;;
29030;SDS011;16122;50.236;11.734;2023-02-17T03:11:03;3.77;;;3.47;;
29030;SDS011;16122;50.236;11.734;2023-02-17T03:13:34;3.47;;;3.17;;
29030;SDS011;16122;50.236;11.734;2023-02-17T03:16:06;3.77;;;3.47;;
29030;SDS011;16122;50.236;11.734;2023-02-17T03:18:32;4.00;;;3.70;;
29030;SDS011;16122;50.236;11.734;2023-02-17T03:21:11;4.20;;;3.90;;
29030;SDS011;16122;50.236;11.734;2023-02-17T03:23:41;4.33;;;3.93;;
29030;SDS011;16122;50.236;11.734;2023-02-17T03:26:07;3.80;;;3.50;;
29030;SDS011;16122;50.236;11.734;2023-02-17T03:28:33;3.97;;;3.67;;
29030;SDS011;16122;50.236;11.734;2023-02-17T03:30:59;4.00;;;3.63;;
29030;SDS011;16122;50.236;11.734;2023-02-17T03:33:25;3.93;;;3.63;;
29030;SDS011;16122;50.236;11.734;2023-02-17T03:35:51;4.27;;;3.87;;
29030;SDS011;16122;50.236;11.734;2023-02-17T03:38:16;4.10;;;3.80;;
29030;SDS011;16122;50.236;11.734;2023-02-17T03:40:43;4.80;;;4.30;;
29030;SDS011;16122;50.236;11.734;2023-02-17T03:43:09;3.70;;;3.40;;
29030;SDS011;16122;50.236;11.734;2023-02-17T03:45:35;3.70;;;3.33;;
29030;SDS011;16122;50.236;11.734;2023-02-17T03:48:02;3.90;;;3.60;;
29030;SDS011;16122;50.236;11.734;2023-02-17T03:50:28;3.27;;;3.07;;
29030;SDS011;16122;50.236;11.734;2023-02-17T03:52:54;3.93;;;3.63;;
29030;SDS011;16122;50.236;11.734;2023-02-17T03:55:21;3.70;;;3.40;;
29030;SDS011;16122;50.236;11.734;2023-02-17T03:57:47;4.30;;;3.90;;
29030;SDS011;16122;50.236;11.734;2023-02-17T04:00:13;4.03;;;3.73;;
29030;SDS011;16122;50.236;11.734;2023-02-17T04:02:39;3.50;;;3.20;;
29030;SDS011;16122;50.236;11.734;2023-02-17T04:05:05;3.80;;;3.50;;
29030;SDS011;16122;50.236;11.734;2023-02-17T04:07:32;3.30;;;3.07;;
29030;SDS011;16122;50.236;11.734;2023-02-17T04:09:57;4.20;;;3.80;;
29030;SDS011;16122;50.236;11.734;2023-02-17T04:12:23;3.90;;;3.60;;
29030;SDS011;16122;50.236;11.734;2023-02-17T04:14:49;3.87;;;3.57;;
29030;SDS011;16122;50.236;11.734;2023-02-17T04:17:15;3.90;;;3.60;;
29030;SDS011;16122;50.236;11.734;2023-02-17T04:19:41;3.60;;;3.30;;
29030;SDS011;16122;50.236;11.734;2023-02-17T04:22:06;3.40;;;3.10;;
29030;SDS011;16122;50.236;11.734;2023-02-17T04:24:34;3.53;;;3.30;;
29030;SDS011;16122;50.236;11.734;2023-02-17T04:27:01;3.60;;;3.33;;
29030;SDS011;16122;50.236;11.734;2023-02-17T04:29:28;3.80;;;3.50;;
29030;SDS011;16122;50.236;11.734;2023-02-17T04:31:54;3.43;;;3.13;;
29030;SDS011;16122;50.236;11.734;2023-02-17T04:34:20;4.00;;;3.70;;
29030;SDS011;16122;50.236;11.734;2023-02-17T04:36:45;4.03;;;3.73;;
29030;SDS011;16122;50.236;11.734;2023-02-17T04:39:12;3.40;;;3.13;;
29030;SDS011;16122;50.236;11.734;2023-02-17T04:41:38;3.87;;;3.30;;
29030;SDS011;16122;50.236;11.734;2023-02-17T04:44:03;3.47;;;3.17;;
29030;SDS011;16122;50.236;11.734;2023-02-17T04:46:29;4.10;;;3.67;;
29030;SDS011;16122;50.236;11.734;2023-02-17T04:48:55;3.50;;;3.20;;
29030;SDS011;16122;50.236;11.734;2023-02-17T04:51:21;3.10;;;2.90;;
29030;SDS011;16122;50.236;11.734;2023-02-17T04:53:47;4.33;;;3.93;;
29030;SDS011;16122;50.236;11.734;2023-02-17T04:56:13;4.03;;;3.27;;
29030;SDS011;16122;50.236;11.734;2023-02-17T04:58:38;3.67;;;3.37;;
29030;SDS011;16122;50.236;11.734;2023-02-17T05:01:04;3.77;;;3.40;;
29030;SDS011;16122;50.236;11.734;2023-02-17T05:03:30;3.77;;;3.47;;
29030;SDS011;16122;50.236;11.734;2023-02-17T05:05:56;3.70;;;3.40;;
29030;SDS011;16122;50.236;11.734;2023-02-17T05:08:22;3.93;;;3.60;;
29030;SDS011;16122;50.236;11.734;2023-02-17T05:10:49;4.33;;;3.73;;
29030;SDS011;16122;50.236;11.734;2023-02-17T05:13:16;3.90;;;3.50;;
29030;SDS011;16122;50.236;11.734;2023-02-17T05:15:43;3.47;;;3.20;;
29030;SDS011;16122;50.236;11.734;2023-02-17T05:18:09;3.07;;;2.80;;
29030;SDS011;16122;50.236;11.734;2023-02-17T05:20:36;3.73;;;3.43;;
29030;SDS011;16122;50.236;11.734;2023-02-17T05:23:02;3.70;;;3.40;;
29030;SDS011;16122;50.236;11.734;2023-02-17T05:25:27;4.97;;;3.17;;
29030;SDS011;16122;50.236;11.734;2023-02-17T05:27:53;3.20;;;2.90;;
29030;SDS011;16122;50.236;11.734;2023-02-17T05:30:19;3.40;;;3.20;;
29030;SDS011;16122;50.236;11.734;2023-02-17T05:32:45;3.70;;;3.00;;
29030;SDS011;16122;50.236;11.734;2023-02-17T05:35:11;3.30;;;3.10;;
29030;SDS011;16122;50.236;11.734;2023-02-17T05:37:36;3.60;;;2.90;;
29030;SDS011;16122;50.236;11.734;2023-02-17T05:40:02;3.70;;;3.30;;
29030;SDS011;16122;50.236;11.734;2023-02-17T05:42:29;3.40;;;3.07;;
29030;SDS011;16122;50.236;11.734;2023-02-17T05:44:55;3.43;;;3.10;;
29030;SDS011;16122;50.236;11.734;2023-02-17T05:47:21;3.40;;;3.10;;
29030;SDS011;16122;50.236;11.734;2023-02-17T05:49:47;5.77;;;3.43;;
29030;SDS011;16122;50.236;11.734;2023-02-17T05:52:13;3.30;;;2.90;;
29030;SDS011;16122;50.236;11.734;2023-02-17T05:54:39;3.10;;;2.67;;
29030;SDS011;16122;50.236;11.734;2023-02-17T05:57:04;3.13;;;2.80;;
29030;SDS011;16122;50.236;11.734;2023-02-17T05:59:30;3.00;;;2.70;;
29030;SDS011;16122;50.236;11.734;2023-02-17T06:01:56;4.10;;;3.67;;
29030;SDS011;16122;50.236;11.734;2023-02-17T06:04:22;3.30;;;2.83;;
29030;SDS011;16122;50.236;11.734;2023-02-17T06:06:48;2.80;;;2.60;;
29030;SDS011;16122;50.236;11.734;2023-02-17T06:09:13;3.37;;;3.07;;
29030;SDS011;16122;50.236;11.734;2023-02-17T06:11:39;4.00;;;3.27;;
29030;SDS011;16122;50.236;11.734;2023-02-17T06:14:05;3.20;;;2.90;;
29030;SDS011;16122;50.236;11.734;2023-02-17T06:16:31;3.20;;;2.90;;
29030;SDS011;16122;50.236;11.734;2023-02-17T06:18:57;2.77;;;2.57;;
29030;SDS011;16122;50.236;11.734;2023-02-17T06:21:26;3.53;;;3.20;;
29030;SDS011;16122;50.236;11.734;2023-02-17T06:23:53;4.03;;;3.37;;
29030;SDS011;16122;50.236;11.734;2023-02-17T06:26:19;3.30;;;3.00;;
29030;SDS011;16122;50.236;11.734;2023-02-17T06:28:44;3.60;;;3.30;;
29030;SDS011;16122;50.236;11.734;2023-02-17T06:31:10;3.13;;;2.60;;
29030;SDS011;16122;50.236;11.734;2023-02-17T06:33:36;3.30;;;3.03;;
29030;SDS011;16122;50.236;11.734;2023-02-17T06:36:02;2.50;;;2.40;;
29030;SDS011;16122;50.236;11.734;2023-02-17T06:38:28;2.80;;;2.60;;
29030;SDS011;16122;50.236;11.734;2023-02-17T06:40:54;3.40;;;2.77;;
29030;SDS011;16122;50.236;11.734;2023-02-17T06:43:20;3.33;;;3.13;;
29030;SDS011;16122;50.236;11.734;2023-02-17T06:45:46;2.90;;;2.70;;
29030;SDS011;16122;50.236;11.734;2023-02-17T06:48:12;2.63;;;2.43;;
29030;SDS011;16122;50.236;11.734;2023-02-17T06:50:38;3.60;;;3.30;;
29030;SDS011;16122;50.236;11.734;2023-02-17T06:53:04;3.03;;;2.80;;
29030;SDS011;16122;50.236;11.734;2023-02-17T06:55:29;3.67;;;3.37;;
29030;SDS011;16122;50.236;11.734;2023-02-17T06:57:55;3.40;;;3.10;;
29030;SDS011;16122;50.236;11.734;2023-02-17T07:00:21;3.60;;;3.30;;
29030;SDS011;16122;50.236;11.734;2023-02-17T07:02:47;3.20;;;2.90;;
29030;SDS011;16122;50.236;11.734;2023-02-17T07:05:13;4.23;;;3.20;;
29030;SDS011;16122;50.236;11.734;2023-02-17T07:07:39;3.97;;;2.60;;
29030;SDS011;16122;50.236;11.734;2023-02-17T07:10:05;2.90;;;2.70;;
29030;SDS011;16122;50.236;11.734;2023-02-17T07:12:31;3.20;;;2.87;;
29030;SDS011;16122;50.236;11.734;2023-02-17T07:14:57;3.50;;;3.20;;
29030;SDS011;16122;50.236;11.734;2023-02-17T07:17:23;2.43;;;2.33;;
29030;SDS011;16122;50.236;11.734;2023-02-17T07:19:49;3.40;;;3.07;;
29030;SDS011;16122;50.236;11.734;2023-02-17T07:22:15;2.83;;;2.57;;
29030;SDS011;16122;50.236;11.734;2023-02-17T07:24:40;3.23;;;3.00;;
29030;SDS011;16122;50.236;11.734;2023-02-17T07:27:06;2.67;;;2.47;;
29030;SDS011;16122;50.236;11.734;2023-02-17T07:29:33;3.00;;;2.70;;
29030;SDS011;16122;50.236;11.734;2023-02-17T07:31:59;3.03;;;2.83;;
29030;SDS011;16122;50.236;11.734;2023-02-17T07:34:25;2.23;;;2.13;;
29030;SDS011;16122;50.236;11.734;2023-02-17T07:36:51;5.00;;;2.77;;
29030;SDS011;16122;50.236;11.734;2023-02-17T07:39:17;2.70;;;2.50;;
29030;SDS011;16122;50.236;11.734;2023-02-17T07:41:42;2.77;;;2.57;;
29030;SDS011;16122;50.236;11.734;2023-02-17T07:44:08;2.50;;;2.30;;
29030;SDS011;16122;50.236;11.734;2023-02-17T07:46:35;2.30;;;2.20;;
29030;SDS011;16122;50.236;11.734;2023-02-17T07:49:03;2.50;;;2.40;;
29030;SDS011;16122;50.236;11.734;2023-02-17T07:51:30;2.47;;;2.23;;
29030;SDS011;16122;50.236;11.734;2023-02-17T07:53:56;2.60;;;2.40;;
29030;SDS011;16122;50.236;11.734;2023-02-17T07:56:22;2.50;;;2.30;;
29030;SDS011;16122;50.236;11.734;2023-02-17T07:58:48;3.00;;;2.80;;
29030;SDS011;16122;50.236;11.734;2023-02-17T08:01:16;3.07;;;2.83;;
29030;SDS011;16122;50.236;11.734;2023-02-17T08:03:44;2.47;;;2.27;;
29030;SDS011;16122;50.236;11.734;2023-02-17T08:06:17;2.20;;;2.10;;
29030;SDS011;16122;50.236;11.734;2023-02-17T08:08:45;2.57;;;2.43;;
29030;SDS011;16122;50.236;11.734;2023-02-17T08:11:30;2.40;;;2.20;;
29030;SDS011;16122;50.236;11.734;2023-02-17T08:14:15;2.67;;;2.27;;
29030;SDS011;16122;50.236;11.734;2023-02-17T08:16:41;2.40;;;2.30;;
29030;SDS011;16122;50.236;11.734;2023-02-17T08:19:07;2.07;;;1.97;;
29030;SDS011;16122;50.236;11.734;2023-02-17T08:21:33;2.67;;;2.47;;
29030;SDS011;16122;50.236;11.734;2023-02-17T08:23:59;2.43;;;2.23;;
29030;SDS011;16122;50.236;11.734;2023-02-17T08:26:26;2.33;;;2.13;;
29030;SDS011;16122;50.236;11.734;2023-02-17T08:28:52;2.93;;;2.73;;
29030;SDS011;16122;50.236;11.734;2023-02-17T08:31:19;2.67;;;2.43;;
29030;SDS011;16122;50.236;11.734;2023-02-17T08:33:49;2.30;;;2.10;;
29030;SDS011;16122;50.236;11.734;2023-02-17T08:36:15;2.50;;;2.30;;
29030;SDS011;16122;50.236;11.734;2023-02-17T08:38:41;2.60;;;2.50;;
29030;SDS011;16122;50.236;11.734;2023-02-17T08:41:29;2.63;;;2.43;;
29030;SDS011;16122;50.236;11.734;2023-02-17T08:43:57;2.10;;;1.90;;
29030;SDS011;16122;50.236;11.734;2023-02-17T08:46:25;2.53;;;2.33;;
29030;SDS011;16122;50.236;11.734;2023-02-17T08:48:51;2.20;;;2.00;;
29030;SDS011;16122;50.236;11.734;2023-02-17T08:51:18;2.50;;;2.30;;
29030;SDS011;16122;50.236;11.734;2023-02-17T08:53:51;2.73;;;2.53;;
29030;SDS011;16122;50.236;11.734;2023-02-17T08:56:22;2.70;;;2.27;;
29030;SDS011;16122;50.236;11.734;2023-02-17T08:58:49;2.33;;;2.13;;
29030;SDS011;16122;50.236;11.734;2023-02-17T09:01:16;1.90;;;1.80;;
29030;SDS011;16122;50.236;11.734;2023-02-17T09:03:43;2.00;;;1.90;;
29030;SDS011;16122;50.236;11.734;2023-02-17T09:06:09;2.37;;;2.17;;
29030;SDS011;16122;50.236;11.734;2023-02-17T09:08:36;1.70;;;1.60;;
29030;SDS011;16122;50.236;11.734;2023-02-17T09:11:03;2.83;;;1.93;;
29030;SDS011;16122;50.236;11.734;2023-02-17T09:13:29;2.67;;;2.47;;
29030;SDS011;16122;50.236;11.734;2023-02-17T09:15:55;2.27;;;2.10;;
29030;SDS011;16122;50.236;11.734;2023-02-17T09:18:23;2.30;;;2.20;;
29030;SDS011;16122;50.236;11.734;2023-02-17T09:20:49;2.40;;;2.20;;
29030;SDS011;16122;50.236;11.734;2023-02-17T09:23:16;2.07;;;1.90;;
29030;SDS011;16122;50.236;11.734;2023-02-17T09:25:42;2.13;;;2.03;;
29030;SDS011;16122;50.236;11.734;2023-02-17T09:28:09;2.87;;;2.67;;
29030;SDS011;16122;50.236;11.734;2023-02-17T09:30:35;2.17;;;2.07;;
29030;SDS011;16122;50.236;11.734;2023-02-17T09:33:01;3.07;;;2.70;;
29030;SDS011;16122;50.236;11.734;2023-02-17T09:35:29;4.00;;;2.27;;
29030;SDS011;16122;50.236;11.734;2023-02-17T09:37:56;3.63;;;2.53;;
29030;SDS011;16122;50.236;11.734;2023-02-17T09:40:25;5.30;;;2.37;;
29030;SDS011;16122;50.236;11.734;2023-02-17T09:42:58;4.57;;;2.20;;
29030;SDS011;16122;50.236;11.734;2023-02-17T09:45:26;2.30;;;2.07;;
29030;SDS011;16122;50.236;11.734;2023-02-17T09:47:58;4.90;;;1.90;;
29030;SDS011;16122;50.236;11.734;2023-02-17T09:50:37;2.40;;;2.20;;
29030;SDS011;16122;50.236;11.734;2023-02-17T09:53:10;2.23;;;2.03;;
29030;SDS011;16122;50.236;11.734;2023-02-17T09:55:51;3.27;;;2.37;;
29030;SDS011;16122;50.236;11.734;2023-02-17T09:58:21;2.40;;;2.20;;
29030;SDS011;16122;50.236;11.734;2023-02-17T10:00:57;3.30;;;2.20;;
29030;SDS011;16122;50.236;11.734;2023-02-17T10:08:49;3.00;;;2.20;;
29030;SDS011;16122;50.236;11.734;2023-02-17T10:11:27;3.57;;;2.40;;
29030;SDS011;16122;50.236;11.734;2023-02-17T10:16:48;2.40;;;1.90;;
29030;SDS011;16122;50.236;11.734;2023-02-17T10:19:30;2.70;;;1.90;;
29030;SDS011;16122;50.236;11.734;2023-02-17T10:24:29;2.07;;;1.87;;
29030;SDS011;16122;50.236;11.734;2023-02-17T10:35:17;2.20;;;2.00;;
29030;SDS011;16122;50.236;11.734;2023-02-17T10:40:37;2.20;;;2.00;;
29030;SDS011;16122;50.236;11.734;2023-02-17T10:43:03;1.83;;;1.70;;
29030;SDS011;16122;50.236;11.734;2023-02-17T10:45:32;2.20;;;2.10;;
29030;SDS011;16122;50.236;11.734;2023-02-17T10:48:02;2.30;;;1.73;;
29030;SDS011;16122;50.236;11.734;2023-02-17T10:50:33;2.10;;;1.60;;
29030;SDS011;16122;50.236;11.734;2023-02-17T10:53:02;1.97;;;1.77;;
29030;SDS011;16122;50.236;11.734;2023-02-17T10:55:58;2.83;;;1.73;;
29030;SDS011;16122;50.236;11.734;2023-02-17T10:58:35;2.37;;;2.17;;
29030;SDS011;16122;50.236;11.734;2023-02-17T11:01:27;2.17;;;2.07;;
29030;SDS011;16122;50.236;11.734;2023-02-17T11:04:00;2.40;;;2.13;;
29030;SDS011;16122;50.236;11.734;2023-02-17T11:06:27;4.53;;;2.70;;
29030;SDS011;16122;50.236;11.734;2023-02-17T11:08:57;6.93;;;4.20;;
29030;SDS011;16122;50.236;11.734;2023-02-17T11:11:33;13.03;;;5.37;;
29030;SDS011;16122;50.236;11.734;2023-02-17T11:14:17;11.60;;;5.90;;
29030;SDS011;16122;50.236;11.734;2023-02-17T11:16:53;8.30;;;4.70;;
29030;SDS011;16122;50.236;11.734;2023-02-17T11:21:58;6.90;;;4.37;;
29030;SDS011;16122;50.236;11.734;2023-02-17T11:24:27;7.73;;;4.10;;
29030;SDS011;16122;50.236;11.734;2023-02-17T11:27:02;8.33;;;3.80;;
29030;SDS011;16122;50.236;11.734;2023-02-17T11:29:33;4.90;;;3.07;;
29030;SDS011;16122;50.236;11.734;2023-02-17T11:32:04;8.13;;;3.53;;
29030;SDS011;16122;50.236;11.734;2023-02-17T11:34:34;5.33;;;3.27;;
29030;SDS011;16122;50.236;11.734;2023-02-17T11:37:05;3.87;;;2.70;;
29030;SDS011;16122;50.236;11.734;2023-02-17T11:39:52;4.00;;;2.77;;
29030;SDS011;16122;50.236;11.734;2023-02-17T11:44:47;3.53;;;2.87;;
29030;SDS011;16122;50.236;11.734;2023-02-17T11:52:45;4.10;;;2.70;;
29030;SDS011;16122;50.236;11.734;2023-02-17T12:12:13;4.93;;;2.80;;
29030;SDS011;16122;50.236;11.734;2023-02-17T12:20:19;4.30;;;2.27;;
29030;SDS011;16122;50.236;11.734;2023-02-17T12:22:58;2.80;;;2.47;;
29030;SDS011;16122;50.236;11.734;2023-02-17T12:25:55;2.63;;;2.40;;
29030;SDS011;16122;50.236;11.734;2023-02-17T12:31:52;2.30;;;1.83;;
29030;SDS011;16122;50.236;11.734;2023-02-17T12:34:05;3.67;;;2.43;;
29030;SDS011;16122;50.236;11.734;2023-02-17T12:36:54;2.10;;;2.00;;
29030;SDS011;16122;50.236;11.734;2023-02-17T12:39:23;2.60;;;2.27;;
29030;SDS011;16122;50.236;11.734;2023-02-17T12:44:53;3.80;;;2.40;;
29030;SDS011;16122;50.236;11.734;2023-02-17T12:47:30;1.93;;;1.73;;
29030;SDS011;16122;50.236;11.734;2023-02-17T12:50:51;2.37;;;1.83;;
29030;SDS011;16122;50.236;11.734;2023-02-17T12:59:10;5.13;;;2.30;;
29030;SDS011;16122;50.236;11.734;2023-02-17T13:02:34;2.40;;;1.90;;
29030;SDS011;16122;50.236;11.734;2023-02-17T13:04:36;1.93;;;1.83;;
29030;SDS011;16122;50.236;11.734;2023-02-17T13:07:06;3.43;;;2.43;;
29030;SDS011;16122;50.236;11.734;2023-02-17T13:09:47;3.50;;;2.00;;
29030;SDS011;16122;50.236;11.734;2023-02-17T13:14:50;3.10;;;1.57;;
29030;SDS011;16122;50.236;11.734;2023-02-17T13:19:47;2.40;;;2.00;;
29030;SDS011;16122;50.236;11.734;2023-02-17T13:22:20;3.10;;;1.97;;
29030;SDS011;16122;50.236;11.734;2023-02-17T13:24:51;2.27;;;2.07;;
29030;SDS011;16122;50.236;11.734;2023-02-17T13:27:20;4.23;;;1.90;;
29030;SDS011;16122;50.236;11.734;2023-02-17T13:29:46;3.60;;;2.20;;
29030;SDS011;16122;50.236;11.734;2023-02-17T13:32:29;4.93;;;2.00;;
29030;SDS011;16122;50.236;11.734;2023-02-17T13:35:05;2.87;;;2.40;;
29030;SDS011;16122;50.236;11.734;2023-02-17T13:37:38;2.40;;;1.70;;
29030;SDS011;16122;50.236;11.734;2023-02-17T13:40:51;2.30;;;2.00;;
29030;SDS011;16122;50.236;11.734;2023-02-17T13:43:07;1.93;;;1.67;;
29030;SDS011;16122;50.236;11.734;2023-02-17T13:45:47;1.97;;;1.87;;
29030;SDS011;16122;50.236;11.734;2023-02-17T13:48:25;3.07;;;2.10;;
29030;SDS011;16122;50.236;11.734;2023-02-17T13:50:57;1.93;;;1.83;;
29030;SDS011;16122;50.236;11.734;2023-02-17T13:55:54;2.77;;;2.33;;
29030;SDS011;16122;50.236;11.734;2023-02-17T13:58:23;2.00;;;1.90;;
29030;SDS011;16122;50.236;11.734;2023-02-17T14:00:54;2.23;;;1.97;;
29030;SDS011;16122;50.236;11.734;2023-02-17T14:03:22;2.30;;;2.07;;
29030;SDS011;16122;50.236;11.734;2023-02-17T14:05:52;1.80;;;1.70;;
29030;SDS011;16122;50.236;11.734;2023-02-17T14:11:09;3.43;;;2.10;;
29030;SDS011;16122;50.236;11.734;2023-02-17T14:13:38;3.57;;;2.00;;
29030;SDS011;16122;50.236;11.734;2023-02-17T14:16:20;6.00;;;2.63;;
29030;SDS011;16122;50.236;11.734;2023-02-17T14:18:59;6.77;;;2.13;;
29030;SDS011;16122;50.236;11.734;2023-02-17T14:21:31;2.27;;;2.00;;
29030;SDS011;16122;50.236;11.734;2023-02-17T14:23:57;2.50;;;2.03;;
29030;SDS011;16122;50.236;11.734;2023-02-17T14:29:05;2.30;;;1.77;;
29030;SDS011;16122;50.236;11.734;2023-02-17T14:31:39;3.07;;;2.00;;
29030;SDS011;16122;50.236;11.734;2023-02-17T14:34:07;1.97;;;1.80;;
29030;SDS011;16122;50.236;11.734;2023-02-17T14:37:08;2.23;;;2.03;;
29030;SDS011;16122;50.236;11.734;2023-02-17T14:39:40;5.57;;;2.00;;
29030;SDS011;16122;50.236;11.734;2023-02-17T14:42:06;3.50;;;2.00;;
29030;SDS011;16122;50.236;11.734;2023-02-17T14:44:32;4.17;;;2.33;;
29030;SDS011;16122;50.236;11.734;2023-02-17T14:46:58;3.90;;;2.50;;
29030;SDS011;16122;50.236;11.734;2023-02-17T14:49:24;2.13;;;1.83;;
29030;SDS011;16122;50.236;11.734;2023-02-17T14:51:49;2.10;;;1.80;;
29030;SDS011;16122;50.236;11.734;2023-02-17T14:54:16;2.43;;;1.90;;
29030;SDS011;16122;50.236;11.734;2023-02-17T14:59:24;2.17;;;1.97;;
29030;SDS011;16122;50.236;11.734;2023-02-17T15:01:50;4.70;;;1.87;;
29030;SDS011;16122;50.236;11.734;2023-02-17T15:04:16;3.80;;;1.70;;
29030;SDS011;16122;50.236;11.734;2023-02-17T15:06:43;2.73;;;1.83;;
29030;SDS011;16122;50.236;11.734;2023-02-17T15:09:15;3.00;;;2.03;;
29030;SDS011;16122;50.236;11.734;2023-02-17T15:11:43;1.80;;;1.70;;
29030;SDS011;16122;50.236;11.734;2023-02-17T15:14:17;1.93;;;1.83;;
29030;SDS011;16122;50.236;11.734;2023-02-17T15:16:45;3.03;;;1.63;;
29030;SDS011;16122;50.236;11.734;2023-02-17T15:19:12;1.80;;;1.53;;
29030;SDS011;16122;50.236;11.734;2023-02-17T15:21:42;1.63;;;1.53;;
29030;SDS011;16122;50.236;11.734;2023-02-17T15:24:14;2.00;;;1.80;;
29030;SDS011;16122;50.236;11.734;2023-02-17T15:26:42;2.53;;;1.80;;
29030;SDS011;16122;50.236;11.734;2023-02-17T15:29:18;2.23;;;1.63;;
29030;SDS011;16122;50.236;11.734;2023-02-17T15:31:47;2.23;;;2.03;;
29030;SDS011;16122;50.236;11.734;2023-02-17T15:34:15;1.80;;;1.70;;
29030;SDS011;16122;50.236;11.734;2023-02-17T15:36:43;3.70;;;1.67;;
29030;SDS011;16122;50.236;11.734;2023-02-17T15:39:10;2.77;;;1.90;;
29030;SDS011;16122;50.236;11.734;2023-02-17T15:41:37;1.70;;;1.60;;
29030;SDS011;16122;50.236;11.734;2023-02-17T15:44:04;1.90;;;1.80;;
29030;SDS011;16122;50.236;11.734;2023-02-17T15:46:36;2.00;;;1.47;;
29030;SDS011;16122;50.236;11.734;2023-02-17T15:49:03;2.37;;;1.57;;
29030;SDS011;16122;50.236;11.734;2023-02-17T15:51:29;3.37;;;1.97;;
29030;SDS011;16122;50.236;11.734;2023-02-17T15:53:55;1.80;;;1.70;;
29030;SDS011;16122;50.236;11.734;2023-02-17T15:56:25;1.70;;;1.60;;
29030;SDS011;16122;50.236;11.734;2023-02-17T15:58:55;2.73;;;1.53;;
29030;SDS011;16122;50.236;11.734;2023-02-17T16:03:48;2.00;;;1.70;;
29030;SDS011;16122;50.236;11.734;2023-02-17T16:06:14;1.97;;;1.87;;
29030;SDS011;16122;50.236;11.734;2023-02-17T16:08:40;2.00;;;1.30;;
29030;SDS011;16122;50.236;11.734;2023-02-17T16:11:08;2.70;;;1.60;;
29030;SDS011;16122;50.236;11.734;2023-02-17T16:13:38;2.43;;;1.77;;
29030;SDS011;16122;50.236;11.734;2023-02-17T16:16:05;2.17;;;1.80;;
29030;SDS011;16122;50.236;11.734;2023-02-17T16:18:57;3.63;;;1.63;;
29030;SDS011;16122;50.236;11.734;2023-02-17T16:21:23;2.53;;;1.90;;
29030;SDS011;16122;50.236;11.734;2023-02-17T16:23:50;2.27;;;1.73;;
29030;SDS011;16122;50.236;11.734;2023-02-17T16:28:54;1.87;;;1.67;;
29030;SDS011;16122;50.236;11.734;2023-02-17T16:31:20;1.57;;;1.47;;
29030;SDS011;16122;50.236;11.734;2023-02-17T16:33:46;2.30;;;1.70;;
29030;SDS011;16122;50.236;11.734;2023-02-17T16:36:19;1.57;;;1.47;;
29030;SDS011;16122;50.236;11.734;2023-02-17T16:38:47;2.60;;;1.87;;
29030;SDS011;16122;50.236;11.734;2023-02-17T16:41:15;3.07;;;2.20;;
29030;SDS011;16122;50.236;11.734;2023-02-17T16:43:42;4.60;;;1.87;;
29030;SDS011;16122;50.236;11.734;2023-02-17T16:46:26;4.70;;;1.90;;